Time;durP1;ratioP1;P1;durP2;ratioP2;P2;SDS_P1;SDS_P2;PMS_P1;PMS_P2;Temp;Humidity;BMP_temperature;BMP_pressure;BME280_temperature;BME280_humidity;BME280_pressure;Samples;Min_cycle;Max_cycle;Signal;HPM_P1;HPM_P2
2023/08/28 00:00:52;;;;;;;;;1.00;1.00;;;;;;;;5008756;28;51381;-62
2023/08/28 00:03:17;;;;;;;;;2.33;2.00;;;;;;;;5006121;28;51475;-62
2023/08/28 00:05:42;;;;;;;;;2.00;2.00;;;;;;;;5004793;28;51837;-62
2023/08/28 00:08:08;;;;;;;;;2.00;2.00;;;;;;;;5010658;28;51046;-62
2023/08/28 00:10:33;;;;;;;;;2.00;1.00;;;;;;;;5010615;28;51069;-63
2023/08/28 00:12:58;;;;;;;;;1.67;1.00;;;;;;;;5007443;28;50997;-62
2023/08/28 00:15:23;;;;;;;;;2.00;2.00;;;;;;;;5003361;28;51221;-63
2023/08/28 00:17:49;;;;;;;;;1.67;1.33;;;;;;;;5004674;28;51062;-62
2023/08/28 00:20:15;;;;;;;;;1.00;1.00;;;;;;;;5005677;28;51295;-62
2023/08/28 00:22:40;;;;;;;;;2.33;1.33;;;;;;;;4998850;28;51331;-63
2023/08/28 00:25:09;;;;;;;;;1.67;1.67;;;;;;;;4990949;28;52046;-62
2023/08/28 00:27:34;;;;;;;;;1.67;1.67;;;;;;;;5006849;28;51390;-63
2023/08/28 00:29:59;;;;;;;;;2.00;1.00;;;;;;;;5006261;28;51198;-62
2023/08/28 00:32:25;;;;;;;;;2.00;2.00;;;;;;;;5006526;28;51009;-62
2023/08/28 00:34:51;;;;;;;;;1.00;1.00;;;;;;;;4999940;28;52795;-61
2023/08/28 00:37:16;;;;;;;;;2.00;2.00;;;;;;;;4999750;28;52047;-62
2023/08/28 00:39:41;;;;;;;;;3.33;1.33;;;;;;;;5001261;28;51242;-63
2023/08/28 00:42:06;;;;;;;;;1.00;1.00;;;;;;;;4997213;28;51310;-63
2023/08/28 00:44:32;;;;;;;;;1.67;1.00;;;;;;;;5002515;28;52152;-62
2023/08/28 00:46:57;;;;;;;;;1.00;1.00;;;;;;;;4984844;28;51031;-62
2023/08/28 00:49:22;;;;;;;;;1.00;1.00;;;;;;;;5000795;28;51114;-61
2023/08/28 00:51:48;;;;;;;;;1.00;1.00;;;;;;;;4997485;28;51263;-66
2023/08/28 00:54:14;;;;;;;;;1.00;1.00;;;;;;;;5001995;28;51416;-60
2023/08/28 00:56:40;;;;;;;;;2.00;2.00;;;;;;;;5001370;28;51606;-61
2023/08/28 00:59:05;;;;;;;;;1.00;1.00;;;;;;;;4999580;28;51109;-60
2023/08/28 01:01:30;;;;;;;;;0.67;0.67;;;;;;;;4999350;28;50935;-61
2023/08/28 01:03:55;;;;;;;;;3.00;2.00;;;;;;;;5000660;28;52168;-60
2023/08/28 01:06:21;;;;;;;;;1.67;1.67;;;;;;;;5003292;28;51157;-62
2023/08/28 01:09:05;;;;;;;;;1.50;1.00;;;;;;;;5002288;28;51107;-62
2023/08/28 01:11:33;;;;;;;;;1.67;1.00;;;;;;;;4983478;28;51162;-63
2023/08/28 01:14:08;;;;;;;;;1.33;1.33;;;;;;;;4999665;28;54532;-63
2023/08/28 01:16:35;;;;;;;;;1.33;1.33;;;;;;;;4997225;28;51298;-63
2023/08/28 01:19:00;;;;;;;;;4.00;1.00;;;;;;;;4999947;28;51030;-63
2023/08/28 01:21:26;;;;;;;;;1.67;1.00;;;;;;;;5003761;28;51321;-63
2023/08/28 01:24:06;;;;;;;;;2.00;2.00;;;;;;;;5001216;28;51255;-63
2023/08/28 01:26:32;;;;;;;;;3.00;3.00;;;;;;;;4999408;28;51176;-64
2023/08/28 01:28:57;;;;;;;;;2.00;2.00;;;;;;;;4999162;28;51263;-63
2023/08/28 01:31:22;;;;;;;;;1.00;1.00;;;;;;;;5000526;28;51385;-63
2023/08/28 01:33:49;;;;;;;;;2.00;2.00;;;;;;;;4997421;28;50998;-64
2023/08/28 01:36:36;;;;;;;;;6.00;6.00;;;;;;;;5004647;28;51175;-63
2023/08/28 01:39:05;;;;;;;;;3.00;2.00;;;;;;;;5001599;28;51123;-62
2023/08/28 01:41:34;;;;;;;;;3.00;2.00;;;;;;;;5002628;28;51592;-63
2023/08/28 01:44:01;;;;;;;;;1.33;1.00;;;;;;;;5001684;28;51124;-63
2023/08/28 01:46:28;;;;;;;;;1.00;1.00;;;;;;;;4987871;28;51043;-64
2023/08/28 01:48:53;;;;;;;;;1.33;1.33;;;;;;;;5000720;28;51106;-64
2023/08/28 01:51:19;;;;;;;;;1.67;1.67;;;;;;;;5000342;28;51313;-62
2023/08/28 01:53:45;;;;;;;;;2.00;2.00;;;;;;;;5003437;28;51896;-63
2023/08/28 01:56:10;;;;;;;;;0.67;0.67;;;;;;;;5005874;28;51172;-63
2023/08/28 01:58:40;;;;;;;;;1.50;1.50;;;;;;;;5006739;28;51452;-63
2023/08/28 02:01:06;;;;;;;;;2.33;1.00;;;;;;;;5003759;28;51152;-62
2023/08/28 02:03:31;;;;;;;;;1.67;1.67;;;;;;;;5002319;28;51121;-64
2023/08/28 02:05:57;;;;;;;;;60.33;47.33;;;;;;;;5001402;28;51061;-64
2023/08/28 02:08:22;;;;;;;;;2.00;1.00;;;;;;;;4997488;28;51513;-63
2023/08/28 02:10:47;;;;;;;;;2.67;1.67;;;;;;;;5004193;28;51325;-63
2023/08/28 02:13:12;;;;;;;;;1.67;1.67;;;;;;;;5003919;28;52124;-63
2023/08/28 02:15:38;;;;;;;;;2.00;1.00;;;;;;;;5003754;28;51152;-62
2023/08/28 02:18:03;;;;;;;;;3.00;3.00;;;;;;;;5003064;28;51080;-63
2023/08/28 02:20:29;;;;;;;;;2.00;1.00;;;;;;;;5005184;28;51293;-63
2023/08/28 02:22:54;;;;;;;;;1.67;1.00;;;;;;;;5003214;28;51160;-63
2023/08/28 02:25:22;;;;;;;;;1.33;1.33;;;;;;;;5006083;28;51142;-63
2023/08/28 02:27:48;;;;;;;;;2.00;1.00;;;;;;;;5004056;28;51060;-63
2023/08/28 02:30:13;;;;;;;;;1.67;1.67;;;;;;;;5001893;28;50898;-63
2023/08/28 02:32:39;;;;;;;;;1.00;1.00;;;;;;;;5002170;28;52108;-62
2023/08/28 02:35:04;;;;;;;;;2.00;1.33;;;;;;;;5009108;28;51462;-62
2023/08/28 02:37:29;;;;;;;;;0.33;0.33;;;;;;;;5002950;28;51272;-62
2023/08/28 02:39:54;;;;;;;;;1.00;1.00;;;;;;;;5004542;28;51372;-62
2023/08/28 02:42:20;;;;;;;;;1.00;1.00;;;;;;;;5000204;28;53074;-62
2023/08/28 02:44:45;;;;;;;;;1.00;1.00;;;;;;;;5003490;28;51051;-63
2023/08/28 02:47:10;;;;;;;;;3.00;1.00;;;;;;;;5004686;28;51193;-62
2023/08/28 02:49:35;;;;;;;;;1.00;1.00;;;;;;;;5004149;28;51236;-62
2023/08/28 02:52:00;;;;;;;;;2.00;2.00;;;;;;;;5003504;28;51046;-62
2023/08/28 02:54:26;;;;;;;;;2.00;1.00;;;;;;;;5000863;28;51032;-62
2023/08/28 02:56:51;;;;;;;;;1.00;1.00;;;;;;;;5003036;28;51006;-62
2023/08/28 02:59:16;;;;;;;;;1.00;1.00;;;;;;;;5003959;28;51057;-63
2023/08/28 03:01:42;;;;;;;;;1.00;1.00;;;;;;;;5001466;28;51933;-62
2023/08/28 03:04:07;;;;;;;;;2.00;2.00;;;;;;;;5002198;28;51067;-62
2023/08/28 03:06:36;;;;;;;;;2.00;1.33;;;;;;;;5002739;28;51148;-62
2023/08/28 03:09:01;;;;;;;;;2.33;2.00;;;;;;;;5002203;28;51254;-63
2023/08/28 03:11:26;;;;;;;;;1.00;1.00;;;;;;;;5003356;28;51087;-63
2023/08/28 03:13:52;;;;;;;;;1.00;1.00;;;;;;;;5002836;28;52027;-62
2023/08/28 03:16:17;;;;;;;;;1.00;1.00;;;;;;;;5017448;28;43891;-62
2023/08/28 03:18:42;;;;;;;;;1.00;1.00;;;;;;;;5037467;28;27769;-62
2023/08/28 03:21:07;;;;;;;;;1.33;1.33;;;;;;;;5042948;28;8789;-62
2023/08/28 03:23:32;;;;;;;;;1.00;1.00;;;;;;;;5040135;28;8968;-63
2023/08/28 03:25:57;;;;;;;;;0.67;0.67;;;;;;;;5039332;28;31341;-63
2023/08/28 03:28:23;;;;;;;;;1.00;0.67;;;;;;;;5017917;28;31981;-63
2023/08/28 03:30:48;;;;;;;;;2.33;2.00;;;;;;;;5019983;28;33045;-63
2023/08/28 03:33:13;;;;;;;;;1.33;1.33;;;;;;;;5033116;28;42339;-64
2023/08/28 03:35:38;;;;;;;;;1.67;1.00;;;;;;;;5039518;28;42606;-63
2023/08/28 03:38:04;;;;;;;;;2.00;1.00;;;;;;;;5031450;28;50302;-63
2023/08/28 03:40:29;;;;;;;;;2.00;2.00;;;;;;;;5037852;28;28997;-63
2023/08/28 03:42:54;;;;;;;;;0.00;0.00;;;;;;;;5034855;28;50556;-62
2023/08/28 03:45:19;;;;;;;;;2.00;1.00;;;;;;;;5021118;28;51191;-63
2023/08/28 03:47:44;;;;;;;;;1.00;1.00;;;;;;;;5040723;28;8883;-63
2023/08/28 03:50:09;;;;;;;;;2.00;2.00;;;;;;;;5040572;28;8807;-63
2023/08/28 03:52:35;;;;;;;;;2.00;2.00;;;;;;;;5032857;28;51178;-63
2023/08/28 03:55:00;;;;;;;;;1.00;1.00;;;;;;;;5034926;28;42258;-63
2023/08/28 03:57:25;;;;;;;;;2.00;2.00;;;;;;;;5035041;28;42236;-63
2023/08/28 03:59:50;;;;;;;;;1.00;1.00;;;;;;;;5040158;28;8861;-62
2023/08/28 04:02:15;;;;;;;;;2.00;2.00;;;;;;;;5043064;28;15109;-63
2023/08/28 04:04:41;;;;;;;;;1.67;1.00;;;;;;;;5037280;28;36289;-63
2023/08/28 04:07:07;;;;;;;;;1.00;1.00;;;;;;;;5024345;28;8910;-64
2023/08/28 04:09:32;;;;;;;;;2.00;2.00;;;;;;;;5039194;28;38349;-64
2023/08/28 04:11:57;;;;;;;;;1.67;1.33;;;;;;;;5037574;28;46096;-63
2023/08/28 04:14:23;;;;;;;;;1.00;1.00;;;;;;;;5040738;28;8844;-63
2023/08/28 04:16:49;;;;;;;;;3.00;2.00;;;;;;;;5020426;28;8802;-63
2023/08/28 04:19:14;;;;;;;;;2.00;2.00;;;;;;;;5038175;28;8814;-63
2023/08/28 04:21:39;;;;;;;;;1.00;1.00;;;;;;;;5038607;28;43329;-64
2023/08/28 04:24:05;;;;;;;;;2.67;2.00;;;;;;;;5039249;28;8842;-62
2023/08/28 04:26:30;;;;;;;;;1.67;1.67;;;;;;;;5021781;28;8888;-63
2023/08/28 04:28:56;;;;;;;;;2.67;1.67;;;;;;;;5038216;28;8818;-62
2023/08/28 04:31:21;;;;;;;;;1.00;1.00;;;;;;;;5037490;28;8798;-63
2023/08/28 04:33:46;;;;;;;;;1.00;1.00;;;;;;;;5041315;28;8813;-63
2023/08/28 04:36:11;;;;;;;;;2.00;1.00;;;;;;;;5019503;28;8841;-62
2023/08/28 04:38:37;;;;;;;;;2.00;1.33;;;;;;;;5029466;28;8859;-63
2023/08/28 04:41:02;;;;;;;;;1.00;1.00;;;;;;;;5029216;28;8840;-63
2023/08/28 04:43:28;;;;;;;;;2.33;2.00;;;;;;;;5042792;28;8810;-63
2023/08/28 04:45:53;;;;;;;;;2.00;2.00;;;;;;;;5025496;28;50978;-61
2023/08/28 04:48:18;;;;;;;;;2.00;2.00;;;;;;;;5034840;28;51695;-63
2023/08/28 04:50:44;;;;;;;;;3.00;1.33;;;;;;;;5036234;28;46192;-63
2023/08/28 04:53:09;;;;;;;;;1.67;1.67;;;;;;;;5036924;28;50283;-63
2023/08/28 04:55:38;;;;;;;;;2.67;2.00;;;;;;;;5042743;28;8835;-62
2023/08/28 04:58:03;;;;;;;;;3.00;2.25;;;;;;;;5040277;28;8779;-63
2023/08/28 05:00:28;;;;;;;;;2.00;2.00;;;;;;;;5038954;28;44653;-62
2023/08/28 05:02:53;;;;;;;;;1.00;1.00;;;;;;;;5038302;28;41366;-62
2023/08/28 05:05:19;;;;;;;;;3.00;2.33;;;;;;;;5035269;28;50267;-63
2023/08/28 05:07:44;;;;;;;;;1.67;1.67;;;;;;;;5033211;28;51010;-62
2023/08/28 05:10:09;;;;;;;;;1.67;1.00;;;;;;;;5038831;28;45321;-63
2023/08/28 05:12:34;;;;;;;;;1.00;1.00;;;;;;;;5034165;28;50345;-62
2023/08/28 05:15:00;;;;;;;;;2.00;2.00;;;;;;;;5022901;28;51098;-63
2023/08/28 05:17:25;;;;;;;;;2.00;2.00;;;;;;;;5018718;28;51127;-63
2023/08/28 05:19:50;;;;;;;;;1.33;1.00;;;;;;;;5041706;28;44733;-63
2023/08/28 05:22:15;;;;;;;;;1.00;1.00;;;;;;;;5043558;28;50096;-63
2023/08/28 05:24:40;;;;;;;;;1.00;1.00;;;;;;;;5042805;28;38056;-62
2023/08/28 05:27:06;;;;;;;;;1.00;1.00;;;;;;;;5028709;28;51078;-63
2023/08/28 05:29:31;;;;;;;;;1.33;1.33;;;;;;;;5033909;28;50927;-62
2023/08/28 05:31:56;;;;;;;;;1.67;1.67;;;;;;;;5008660;28;51142;-62
2023/08/28 05:34:21;;;;;;;;;2.00;1.00;;;;;;;;5011911;28;51161;-62
2023/08/28 05:36:46;;;;;;;;;2.00;2.00;;;;;;;;4986886;28;53204;-64
2023/08/28 05:39:12;;;;;;;;;3.00;1.00;;;;;;;;5003145;28;51264;-62
2023/08/28 05:41:37;;;;;;;;;2.00;2.00;;;;;;;;5004950;28;51173;-63
2023/08/28 05:44:02;;;;;;;;;4.00;4.00;;;;;;;;5012121;28;51093;-63
2023/08/28 05:46:27;;;;;;;;;2.67;2.00;;;;;;;;5032067;28;8913;-62
2023/08/28 05:48:52;;;;;;;;;3.00;2.00;;;;;;;;5024933;28;51222;-62
2023/08/28 05:51:18;;;;;;;;;1.00;1.00;;;;;;;;5010747;28;51002;-63
2023/08/28 05:53:43;;;;;;;;;1.00;1.00;;;;;;;;5044790;28;8894;-64
2023/08/28 05:56:08;;;;;;;;;2.33;2.33;;;;;;;;5030381;28;50919;-64
2023/08/28 05:58:34;;;;;;;;;2.00;2.00;;;;;;;;5005216;28;50937;-64
2023/08/28 06:00:59;;;;;;;;;2.00;2.00;;;;;;;;5033429;28;43908;-64
2023/08/28 06:03:24;;;;;;;;;2.00;1.33;;;;;;;;5048511;28;8944;-63
2023/08/28 06:05:50;;;;;;;;;1.00;1.00;;;;;;;;5018912;28;50978;-63
2023/08/28 06:08:15;;;;;;;;;15.75;15.75;;;;;;;;5045964;28;8902;-64
2023/08/28 06:10:42;;;;;;;;;3.00;3.00;;;;;;;;5025167;28;51610;-65
2023/08/28 06:13:07;;;;;;;;;3.67;3.00;;;;;;;;5006039;28;51191;-62
2023/08/28 06:15:32;;;;;;;;;1.33;1.33;;;;;;;;5026471;28;50939;-63
2023/08/28 06:17:57;;;;;;;;;1.00;1.00;;;;;;;;5009542;28;51005;-63
2023/08/28 06:20:23;;;;;;;;;2.00;2.00;;;;;;;;5008096;28;51196;-63
2023/08/28 06:22:48;;;;;;;;;2.00;2.00;;;;;;;;5028652;28;51146;-63
2023/08/28 06:25:13;;;;;;;;;3.00;3.00;;;;;;;;5031318;28;8816;-63
2023/08/28 06:27:39;;;;;;;;;49.50;39.75;;;;;;;;5043006;28;8801;-63
2023/08/28 06:30:04;;;;;;;;;9.00;8.67;;;;;;;;5042813;28;8807;-63
2023/08/28 06:32:29;;;;;;;;;4.00;3.00;;;;;;;;5047760;28;8815;-63
2023/08/28 06:34:55;;;;;;;;;1.67;1.67;;;;;;;;5042255;28;8812;-65
2023/08/28 06:37:20;;;;;;;;;3.00;3.00;;;;;;;;5043191;28;8851;-63
2023/08/28 06:39:45;;;;;;;;;2.00;2.00;;;;;;;;5042221;28;8795;-63
2023/08/28 06:42:10;;;;;;;;;1.33;1.00;;;;;;;;5031177;28;51103;-68
2023/08/28 06:44:36;;;;;;;;;3.00;3.00;;;;;;;;5009479;28;52277;-63
2023/08/28 06:47:01;;;;;;;;;4.00;3.00;;;;;;;;5027537;28;51136;-63
2023/08/28 06:49:27;;;;;;;;;2.00;2.00;;;;;;;;5031132;28;51153;-64
2023/08/28 06:51:52;;;;;;;;;2.67;2.00;;;;;;;;5026232;28;51056;-63
2023/08/28 06:54:17;;;;;;;;;3.00;2.67;;;;;;;;5040299;28;51864;-63
2023/08/28 06:56:42;;;;;;;;;2.00;2.00;;;;;;;;5044868;28;8801;-63
2023/08/28 06:59:08;;;;;;;;;2.33;2.33;;;;;;;;5043100;28;8806;-64
2023/08/28 07:01:33;;;;;;;;;4.00;3.67;;;;;;;;5036752;28;51263;-60
2023/08/28 07:03:58;;;;;;;;;3.00;3.00;;;;;;;;5004842;28;51220;-60
2023/08/28 07:06:23;;;;;;;;;2.67;2.33;;;;;;;;5027365;28;9560;-61
2023/08/28 07:08:48;;;;;;;;;3.00;3.00;;;;;;;;5020196;28;51010;-60
2023/08/28 07:11:14;;;;;;;;;3.00;2.33;;;;;;;;5041251;28;8828;-60
2023/08/28 07:13:39;;;;;;;;;4.67;4.33;;;;;;;;5038782;28;8799;-60
2023/08/28 07:16:04;;;;;;;;;3.00;2.33;;;;;;;;5042276;28;8812;-60
2023/08/28 07:18:29;;;;;;;;;4.00;4.00;;;;;;;;5043481;28;8833;-60
2023/08/28 07:20:54;;;;;;;;;77.75;68.75;;;;;;;;5019689;28;51142;-60
2023/08/28 07:23:21;;;;;;;;;2.33;2.33;;;;;;;;5039249;28;8948;-60
2023/08/28 07:25:46;;;;;;;;;4.00;4.00;;;;;;;;5041647;28;8779;-60
2023/08/28 07:28:11;;;;;;;;;5.33;5.00;;;;;;;;5043655;28;10836;-60
2023/08/28 07:30:36;;;;;;;;;3.00;3.00;;;;;;;;5040747;28;9018;-60
2023/08/28 07:33:02;;;;;;;;;5.00;5.00;;;;;;;;5045125;28;8807;-60
2023/08/28 07:35:33;;;;;;;;;2.67;2.67;;;;;;;;5024739;28;8811;-60
2023/08/28 07:37:59;;;;;;;;;4.50;3.75;;;;;;;;5041541;28;8840;-60
2023/08/28 07:40:24;;;;;;;;;4.33;4.33;;;;;;;;5044956;28;8792;-60
2023/08/28 07:42:49;;;;;;;;;7.00;5.33;;;;;;;;5045528;28;8885;-60
2023/08/28 07:45:14;;;;;;;;;4.00;4.00;;;;;;;;5041644;28;9537;-60
2023/08/28 07:47:39;;;;;;;;;5.33;5.00;;;;;;;;5043797;28;8818;-60
2023/08/28 07:50:05;;;;;;;;;6.00;6.00;;;;;;;;5044636;28;8836;-60
2023/08/28 07:52:30;;;;;;;;;4.67;4.67;;;;;;;;5042510;28;8959;-60
2023/08/28 07:54:55;;;;;;;;;5.00;5.00;;;;;;;;5040942;28;8897;-61
2023/08/28 07:57:23;;;;;;;;;4.00;4.00;;;;;;;;5042236;28;8816;-65
2023/08/28 07:59:48;;;;;;;;;5.00;4.33;;;;;;;;5043758;28;8799;-59
2023/08/28 08:02:13;;;;;;;;;6.33;5.33;;;;;;;;5039860;28;9215;-59
2023/08/28 08:04:39;;;;;;;;;6.00;6.00;;;;;;;;5043877;28;8820;-60
2023/08/28 08:07:04;;;;;;;;;6.00;6.00;;;;;;;;5041147;28;8802;-60
2023/08/28 08:09:29;;;;;;;;;5.67;5.67;;;;;;;;5042656;28;8864;-60
2023/08/28 08:11:54;;;;;;;;;5.00;4.67;;;;;;;;5046724;28;8824;-60
2023/08/28 08:14:19;;;;;;;;;5.00;5.00;;;;;;;;5043283;28;8831;-60
2023/08/28 08:16:45;;;;;;;;;5.00;5.00;;;;;;;;5025092;28;8858;-59
2023/08/28 08:19:10;;;;;;;;;5.33;5.33;;;;;;;;5041742;28;9655;-61
2023/08/28 08:21:36;;;;;;;;;4.00;4.00;;;;;;;;5041983;28;8819;-60
2023/08/28 08:24:01;;;;;;;;;7.00;6.00;;;;;;;;5033473;28;51102;-60
2023/08/28 08:26:28;;;;;;;;;4.00;4.00;;;;;;;;5024247;28;28921;-60
2023/08/28 08:28:53;;;;;;;;;5.00;5.00;;;;;;;;5030927;28;51002;-60
2023/08/28 08:31:18;;;;;;;;;6.00;6.00;;;;;;;;5006994;28;52081;-60
2023/08/28 08:33:44;;;;;;;;;4.67;4.33;;;;;;;;5005681;28;51160;-60
2023/08/28 08:36:13;;;;;;;;;4.00;4.00;;;;;;;;5004126;28;51141;-60
2023/08/28 08:38:39;;;;;;;;;6.00;6.00;;;;;;;;5005084;28;51248;-60
2023/08/28 08:41:04;;;;;;;;;25.33;23.67;;;;;;;;5003435;28;51094;-60
2023/08/28 08:43:29;;;;;;;;;6.67;6.33;;;;;;;;5005823;28;51129;-60
2023/08/28 08:45:58;;;;;;;;;6.00;6.00;;;;;;;;5015445;28;51081;-60
2023/08/28 08:48:25;;;;;;;;;7.67;7.67;;;;;;;;5034052;28;31989;-60
2023/08/28 08:50:52;;;;;;;;;7.00;6.00;;;;;;;;5045503;28;16506;-60
2023/08/28 08:53:25;;;;;;;;;6.00;5.50;;;;;;;;5046328;28;31869;-60
2023/08/28 08:55:54;;;;;;;;;6.00;6.00;;;;;;;;5047606;28;16574;-60
2023/08/28 08:58:20;;;;;;;;;4.50;4.25;;;;;;;;5045899;28;8947;-60
2023/08/28 09:00:47;;;;;;;;;7.00;7.00;;;;;;;;5048780;28;8777;-60
2023/08/28 09:03:13;;;;;;;;;5.75;5.75;;;;;;;;5032252;28;8896;-60
2023/08/28 09:05:39;;;;;;;;;37.25;31.00;;;;;;;;5041875;28;9704;-60
2023/08/28 09:08:05;;;;;;;;;6.00;6.00;;;;;;;;5043586;28;8788;-60
2023/08/28 09:10:31;;;;;;;;;5.00;5.00;;;;;;;;5028301;28;31248;-61
2023/08/28 09:12:56;;;;;;;;;5.00;4.00;;;;;;;;5030726;28;32017;-60
2023/08/28 09:15:22;;;;;;;;;5.00;5.00;;;;;;;;5045707;28;9579;-60
2023/08/28 09:17:47;;;;;;;;;6.67;6.00;;;;;;;;5046543;28;32030;-61
2023/08/28 09:20:19;;;;;;;;;6.67;5.00;;;;;;;;5051281;28;8845;-61
2023/08/28 09:22:49;;;;;;;;;5.00;5.00;;;;;;;;5052142;28;8789;-61
2023/08/28 09:25:18;;;;;;;;;5.75;5.00;;;;;;;;5034319;28;8724;-61
2023/08/28 09:27:44;;;;;;;;;6.75;5.00;;;;;;;;5041952;28;8878;-60
2023/08/28 09:30:10;;;;;;;;;4.00;4.00;;;;;;;;5046084;28;9141;-60
2023/08/28 09:32:35;;;;;;;;;4.25;4.25;;;;;;;;5042166;28;8823;-60
2023/08/28 09:35:06;;;;;;;;;5.00;5.00;;;;;;;;5050877;28;8793;-60
2023/08/28 09:37:31;;;;;;;;;4.67;4.67;;;;;;;;5045894;28;21499;-60
2023/08/28 09:39:56;;;;;;;;;4.67;4.67;;;;;;;;5043498;28;8979;-61
2023/08/28 09:42:23;;;;;;;;;6.00;5.00;;;;;;;;5051383;28;13308;-61
2023/08/28 09:44:48;;;;;;;;;4.25;4.25;;;;;;;;5050518;28;9713;-60
2023/08/28 09:47:19;;;;;;;;;8.00;8.00;;;;;;;;5029819;28;11653;-61
2023/08/28 09:49:44;;;;;;;;;5.00;5.00;;;;;;;;5045953;28;8814;-61
2023/08/28 09:52:09;;;;;;;;;4.33;4.00;;;;;;;;5049845;28;8835;-61
2023/08/28 09:54:35;;;;;;;;;4.67;4.67;;;;;;;;5048713;28;8824;-59
2023/08/28 09:57:00;;;;;;;;;5.33;5.00;;;;;;;;5049335;28;8947;-59
2023/08/28 09:59:27;;;;;;;;;6.00;6.00;;;;;;;;5041929;28;13713;-60
2023/08/28 10:01:52;;;;;;;;;5.00;5.00;;;;;;;;5047811;28;8797;-59
2023/08/28 10:04:19;;;;;;;;;5.67;5.67;;;;;;;;5041032;28;8924;-60
2023/08/28 10:06:49;;;;;;;;;5.00;5.00;;;;;;;;5042200;28;8796;-60
2023/08/28 10:09:18;;;;;;;;;4.67;4.67;;;;;;;;5035909;28;9318;-60
2023/08/28 10:11:45;;;;;;;;;4.00;4.00;;;;;;;;5029856;28;50218;-59
2023/08/28 10:14:10;;;;;;;;;7.00;6.00;;;;;;;;5037828;28;43853;-60
2023/08/28 10:16:36;;;;;;;;;6.00;6.00;;;;;;;;5038325;28;44657;-60
2023/08/28 10:19:25;;;;;;;;;4.33;4.33;;;;;;;;5033598;28;43023;-59
2023/08/28 10:21:51;;;;;;;;;7.00;7.00;;;;;;;;5038626;28;8870;-59
2023/08/28 10:24:16;;;;;;;;;6.00;5.00;;;;;;;;5037394;28;8811;-60
2023/08/28 10:26:42;;;;;;;;;5.00;5.00;;;;;;;;5048392;28;8873;-60
2023/08/28 10:29:08;;;;;;;;;5.00;4.33;;;;;;;;5046477;28;8877;-60
2023/08/28 10:31:35;;;;;;;;;5.67;5.67;;;;;;;;5044830;28;8951;-60
2023/08/28 10:34:00;;;;;;;;;8.75;7.75;;;;;;;;5046996;28;9812;-60
2023/08/28 10:36:26;;;;;;;;;7.67;7.67;;;;;;;;5043769;28;8802;-59
2023/08/28 10:38:52;;;;;;;;;4.00;4.00;;;;;;;;5041924;28;8830;-60
2023/08/28 10:41:18;;;;;;;;;4.00;4.00;;;;;;;;5042083;28;8807;-59
2023/08/28 10:43:45;;;;;;;;;4.00;3.75;;;;;;;;5042051;28;51066;-60
2023/08/28 10:46:11;;;;;;;;;5.00;5.00;;;;;;;;5045661;28;38359;-60
2023/08/28 10:48:39;;;;;;;;;5.00;5.00;;;;;;;;5037007;28;49123;-60
2023/08/28 10:51:04;;;;;;;;;8.00;8.00;;;;;;;;5035271;28;50980;-60
2023/08/28 10:53:30;;;;;;;;;6.00;6.00;;;;;;;;5028538;28;43980;-60
2023/08/28 10:55:56;;;;;;;;;5.67;5.67;;;;;;;;5042149;28;42284;-59
2023/08/28 10:58:22;;;;;;;;;8.00;7.67;;;;;;;;5024394;28;50196;-59
2023/08/28 11:00:47;;;;;;;;;7.33;7.00;;;;;;;;5030035;28;50920;-60
2023/08/28 11:03:17;;;;;;;;;9.00;8.00;;;;;;;;5033911;28;50404;-60
2023/08/28 11:05:42;;;;;;;;;6.50;6.50;;;;;;;;5043384;28;8833;-60
2023/08/28 11:08:11;;;;;;;;;8.33;7.67;;;;;;;;5044970;28;8817;-60
2023/08/28 11:10:36;;;;;;;;;7.67;6.00;;;;;;;;5041298;28;42957;-60
2023/08/28 11:13:05;;;;;;;;;6.33;6.33;;;;;;;;5045496;28;32528;-60
2023/08/28 11:15:33;;;;;;;;;5.25;5.25;;;;;;;;5042300;28;8818;-60
2023/08/28 11:18:16;;;;;;;;;4.00;4.00;;;;;;;;5035366;28;8819;-60
2023/08/28 11:20:42;;;;;;;;;5.50;5.00;;;;;;;;5053153;28;8803;-60
2023/08/28 11:23:07;;;;;;;;;5.00;5.00;;;;;;;;5037333;28;8854;-60
2023/08/28 11:25:41;;;;;;;;;10.00;9.00;;;;;;;;5031993;28;8870;-60
2023/08/28 11:28:26;;;;;;;;;4.50;4.50;;;;;;;;5035746;28;8801;-60
2023/08/28 11:30:52;;;;;;;;;5.25;5.00;;;;;;;;5031992;28;8801;-59
2023/08/28 11:33:18;;;;;;;;;5.33;5.00;;;;;;;;5041491;28;8853;-60
2023/08/28 11:35:44;;;;;;;;;7.00;6.33;;;;;;;;5035524;28;31816;-60
2023/08/28 11:38:09;;;;;;;;;6.00;6.00;;;;;;;;5024947;28;32641;-60
2023/08/28 11:40:34;;;;;;;;;5.67;5.33;;;;;;;;5008994;28;31825;-60
2023/08/28 11:43:05;;;;;;;;;5.33;4.67;;;;;;;;5030130;28;50485;-59
2023/08/28 11:45:31;;;;;;;;;6.00;6.00;;;;;;;;5022255;28;51051;-60
2023/08/28 11:48:06;;;;;;;;;6.00;6.00;;;;;;;;5018298;28;9935;-59
2023/08/28 11:50:33;;;;;;;;;3.00;3.00;;;;;;;;5029647;28;31857;-61
2023/08/28 11:52:58;;;;;;;;;5.00;5.00;;;;;;;;5015129;28;31829;-60
2023/08/28 11:55:23;;;;;;;;;6.00;6.00;;;;;;;;5025672;28;31708;-60
2023/08/28 11:57:50;;;;;;;;;6.00;6.00;;;;;;;;5012708;28;32011;-60
2023/08/28 12:00:16;;;;;;;;;5.00;5.00;;;;;;;;5028045;28;31858;-60
2023/08/28 12:02:46;;;;;;;;;6.00;4.67;;;;;;;;5034597;28;31826;-60
2023/08/28 12:05:14;;;;;;;;;5.25;5.25;;;;;;;;5036556;28;32109;-60
2023/08/28 12:07:43;;;;;;;;;6.00;6.00;;;;;;;;5024525;28;33318;-60
2023/08/28 12:10:09;;;;;;;;;5.00;5.00;;;;;;;;5019886;28;31949;-60
2023/08/28 12:12:35;;;;;;;;;3.00;3.00;;;;;;;;5027557;28;31996;-61
2023/08/28 12:15:00;;;;;;;;;4.00;4.00;;;;;;;;5026075;28;32120;-60
2023/08/28 12:17:28;;;;;;;;;4.00;4.00;;;;;;;;5007364;28;32792;-60
2023/08/28 12:19:53;;;;;;;;;7.33;6.00;;;;;;;;5019787;28;31715;-59
2023/08/28 12:22:22;;;;;;;;;7.00;6.00;;;;;;;;5026947;28;31871;-59
2023/08/28 12:24:50;;;;;;;;;4.00;4.00;;;;;;;;5003298;28;32316;-59
2023/08/28 12:27:16;;;;;;;;;4.00;3.00;;;;;;;;5014508;28;33592;-60
2023/08/28 12:29:42;;;;;;;;;5.00;4.33;;;;;;;;5011805;28;31942;-61
2023/08/28 12:32:18;;;;;;;;;4.67;4.00;;;;;;;;5028028;28;31998;-60
2023/08/28 12:34:44;;;;;;;;;5.00;5.00;;;;;;;;5016876;28;32237;-59
2023/08/28 12:37:11;;;;;;;;;4.00;3.33;;;;;;;;5028033;28;32041;-60
2023/08/28 12:39:43;;;;;;;;;5.00;5.00;;;;;;;;5033453;28;44651;-60
2023/08/28 12:42:08;;;;;;;;;3.00;3.00;;;;;;;;5020147;28;31980;-60
2023/08/28 12:44:34;;;;;;;;;1.33;1.33;;;;;;;;5014623;28;31843;-59
2023/08/28 12:46:59;;;;;;;;;3.00;3.00;;;;;;;;5020799;28;32865;-59
2023/08/28 12:49:24;;;;;;;;;4.00;4.00;;;;;;;;5027462;28;31798;-60
2023/08/28 12:51:50;;;;;;;;;3.67;3.67;;;;;;;;5028892;28;31798;-59
2023/08/28 12:54:21;;;;;;;;;3.33;3.00;;;;;;;;5045194;28;51260;-59
2023/08/28 12:56:50;;;;;;;;;3.50;3.50;;;;;;;;5047809;28;8785;-59
2023/08/28 12:59:16;;;;;;;;;1.00;1.00;;;;;;;;5034939;28;31823;-60
2023/08/28 13:01:42;;;;;;;;;5.67;5.67;;;;;;;;5022055;28;44722;-60
2023/08/28 13:04:08;;;;;;;;;2.67;2.67;;;;;;;;5024998;28;31883;-61
2023/08/28 13:06:33;;;;;;;;;3.00;3.00;;;;;;;;5027503;28;32005;-59
2023/08/28 13:08:58;;;;;;;;;2.67;2.67;;;;;;;;5027648;28;32039;-59
2023/08/28 13:11:24;;;;;;;;;4.00;3.33;;;;;;;;5024072;28;45292;-59
2023/08/28 13:13:49;;;;;;;;;2.33;2.33;;;;;;;;5040935;28;31717;-60
2023/08/28 13:16:15;;;;;;;;;3.00;3.00;;;;;;;;5049068;28;9655;-59
2023/08/28 13:18:40;;;;;;;;;6.00;6.00;;;;;;;;5048180;28;8784;-61
2023/08/28 13:21:05;;;;;;;;;5.00;4.00;;;;;;;;5053195;28;9004;-60
2023/08/28 13:23:31;;;;;;;;;3.00;3.00;;;;;;;;5029290;28;9574;-60
2023/08/28 13:25:57;;;;;;;;;4.00;4.00;;;;;;;;5040673;28;8812;-60
2023/08/28 13:28:22;;;;;;;;;3.67;3.67;;;;;;;;5043931;28;8898;-61
2023/08/28 13:30:48;;;;;;;;;2.67;2.67;;;;;;;;5048583;28;8812;-61
2023/08/28 13:33:13;;;;;;;;;3.00;3.00;;;;;;;;5051878;28;8789;-60
2023/08/28 13:35:38;;;;;;;;;4.00;3.00;;;;;;;;5058445;28;9595;-61
2023/08/28 13:38:04;;;;;;;;;4.67;4.33;;;;;;;;5048822;28;8822;-60
2023/08/28 13:40:30;;;;;;;;;6.00;5.00;;;;;;;;5051987;28;8855;-61
2023/08/28 13:42:55;;;;;;;;;4.33;4.33;;;;;;;;5038537;28;9573;-60
2023/08/28 13:45:20;;;;;;;;;3.00;3.00;;;;;;;;5050454;28;8836;-60
2023/08/28 13:47:45;;;;;;;;;2.00;2.00;;;;;;;;5037893;28;8784;-61
2023/08/28 13:50:10;;;;;;;;;3.67;3.67;;;;;;;;5050999;28;8824;-60
2023/08/28 13:52:36;;;;;;;;;3.33;2.33;;;;;;;;5043373;28;8784;-60
2023/08/28 13:55:04;;;;;;;;;3.00;3.00;;;;;;;;5051213;28;8816;-61
2023/08/28 13:57:33;;;;;;;;;3.25;3.25;;;;;;;;5031812;28;8799;-59
2023/08/28 14:00:03;;;;;;;;;4.00;4.00;;;;;;;;5043029;28;8919;-60
2023/08/28 14:02:28;;;;;;;;;3.50;3.50;;;;;;;;5045428;28;8785;-59
2023/08/28 14:04:54;;;;;;;;;3.00;3.00;;;;;;;;5036644;28;8834;-61
2023/08/28 14:07:19;;;;;;;;;6.00;4.33;;;;;;;;5041778;28;8817;-61
2023/08/28 14:09:45;;;;;;;;;3.00;3.00;;;;;;;;5031901;28;9628;-60
2023/08/28 14:12:10;;;;;;;;;4.00;4.00;;;;;;;;5044459;28;8933;-60
2023/08/28 14:14:35;;;;;;;;;7.00;6.00;;;;;;;;5045454;28;8923;-59
2023/08/28 14:17:00;;;;;;;;;3.67;3.67;;;;;;;;5049242;28;31969;-59
2023/08/28 14:19:26;;;;;;;;;3.00;2.00;;;;;;;;5029236;28;51003;-59
2023/08/28 14:21:51;;;;;;;;;3.00;2.67;;;;;;;;5053020;28;8835;-60
2023/08/28 14:24:18;;;;;;;;;3.00;3.00;;;;;;;;5033368;28;8836;-61
2023/08/28 14:26:43;;;;;;;;;9.33;9.33;;;;;;;;5051255;28;8896;-60
2023/08/28 14:29:08;;;;;;;;;4.33;4.00;;;;;;;;5050944;28;9799;-61
2023/08/28 14:31:34;;;;;;;;;6.00;6.00;;;;;;;;5031203;28;8827;-60
2023/08/28 14:34:00;;;;;;;;;20.00;20.00;;;;;;;;5049831;28;12729;-61
2023/08/28 14:36:26;;;;;;;;;5.33;5.33;;;;;;;;5047926;28;31933;-61
2023/08/28 14:38:51;;;;;;;;;3.00;3.00;;;;;;;;5040807;28;31925;-60
2023/08/28 14:41:16;;;;;;;;;3.00;3.00;;;;;;;;5049695;28;8902;-61